createdAt,value
2023-01-23T00:02:11.302Z,101327.25
2023-01-23T00:07:13.044Z,101339.63
2023-01-23T00:12:14.684Z,101348.25
2023-01-23T00:17:16.301Z,101333.31
2023-01-23T00:22:18.055Z,101336.22
2023-01-23T00:27:19.662Z,101341.94
2023-01-23T00:32:21.281Z,101348.56
2023-01-23T00:37:22.914Z,101347.41
2023-01-23T00:42:24.576Z,101349.19
2023-01-23T00:47:26.229Z,101353.91
2023-01-23T00:52:28.151Z,101348.22
2023-01-23T00:57:30.439Z,101356.41
2023-01-23T01:02:32.134Z,101361.84
2023-01-23T01:07:33.832Z,101353.97
2023-01-23T01:12:35.489Z,101368.09
2023-01-23T01:17:38.856Z,101374.44
2023-01-23T01:22:40.489Z,101371.94
2023-01-23T01:27:42.133Z,101379.25
2023-01-23T01:32:44.743Z,101385.16
2023-01-23T01:37:49.186Z,101392.88
2023-01-23T01:43:02.914Z,101395.31
2023-01-23T01:48:05.799Z,101398.47
2023-01-23T01:53:07.487Z,101406.25
2023-01-23T01:58:09.362Z,101419.28
2023-01-23T02:03:11.513Z,101415.53
2023-01-23T02:08:35.680Z,101430.25
2023-01-23T02:13:39.975Z,101423.50
2023-01-23T02:18:47.297Z,101436.69
2023-01-23T02:24:08.249Z,101429.16
2023-01-23T02:29:11.196Z,101440.41
2023-01-23T02:34:22.421Z,101435.56
2023-01-23T02:39:25.719Z,101439.94
2023-01-23T02:44:33.892Z,101451.97
2023-01-23T02:49:39.433Z,101452.81
2023-01-23T02:54:42.683Z,101449.94
2023-01-23T03:00:03.462Z,101448.75
2023-01-23T03:05:08.766Z,101444.16
2023-01-23T03:10:11.909Z,101434.72
2023-01-23T03:15:17.156Z,101425.78
2023-01-23T03:20:20.169Z,101416.28
2023-01-23T03:25:22.089Z,101423.94
2023-01-23T03:30:25.575Z,101418.06
2023-01-23T03:35:28.392Z,101428.22
2023-01-23T03:40:49.404Z,101433.44
2023-01-23T03:45:54.472Z,101442.47
2023-01-23T03:50:56.983Z,101454.00
2023-01-23T03:55:59.360Z,101447.69
2023-01-23T04:01:03.549Z,101458.31
2023-01-23T04:06:08.962Z,101458.72
2023-01-23T04:11:12.866Z,101466.03
2023-01-23T04:16:16.732Z,101470.41
2023-01-23T04:21:18.643Z,101476.09
2023-01-23T04:26:20.587Z,101482.19
2023-01-23T04:31:22.627Z,101477.31
2023-01-23T04:36:25.043Z,101479.78
2023-01-23T04:41:30.054Z,101483.69
2023-01-23T04:46:39.069Z,101489.84
2023-01-23T04:51:48.076Z,101499.09
2023-01-23T04:56:51.612Z,101494.25
2023-01-23T05:01:55.238Z,101492.19
2023-01-23T05:06:57.213Z,101498.59
2023-01-23T05:11:58.944Z,101492.47
2023-01-23T05:17:02.359Z,101496.31
2023-01-23T05:22:08.157Z,101498.25
2023-01-23T05:27:10.124Z,101501.41
2023-01-23T05:32:15.000Z,101506.44
2023-01-23T05:37:25.910Z,101504.63
2023-01-23T05:42:31.675Z,101506.06
2023-01-23T05:47:52.387Z,101513.22
2023-01-23T05:52:54.058Z,101516.53
2023-01-23T05:57:56.315Z,101517.09
2023-01-23T06:03:00.783Z,101532.63
2023-01-23T06:08:21.119Z,101527.81
2023-01-23T06:13:25.563Z,101543.66
2023-01-23T06:18:27.460Z,101534.72
2023-01-23T06:23:29.250Z,101541.22
2023-01-23T06:28:33.785Z,101548.13
2023-01-23T06:33:38.889Z,101544.44
2023-01-23T06:38:44.268Z,101553.41
2023-01-23T06:43:48.050Z,101566.97
2023-01-23T06:48:55.529Z,101566.09
2023-01-23T06:53:58.106Z,101570.03
2023-01-23T06:59:00.509Z,101578.94
2023-01-23T07:04:11.178Z,101582.81
2023-01-23T07:09:14.501Z,101588.81
2023-01-23T07:14:20.276Z,101589.97
2023-01-23T07:19:26.885Z,101607.53
2023-01-23T07:24:31.720Z,101622.47
2023-01-23T07:29:33.312Z,101635.38
2023-01-23T07:34:35.072Z,101648.81
2023-01-23T07:39:36.665Z,101647.16
2023-01-23T07:44:38.268Z,101653.19
2023-01-23T07:49:39.876Z,101655.19
2023-01-23T07:54:41.487Z,101659.56
2023-01-23T07:59:43.109Z,101666.25
2023-01-23T08:04:44.771Z,101672.53
2023-01-23T08:09:46.363Z,101662.00
2023-01-23T08:14:48.057Z,101658.97
2023-01-23T08:19:49.688Z,101666.50
2023-01-23T08:24:51.557Z,101665.66
2023-01-23T08:29:53.185Z,101669.16
2023-01-23T08:34:55.444Z,101667.91
2023-01-23T08:39:57.032Z,101666.22
2023-01-23T08:44:58.624Z,101669.16
2023-01-23T08:50:00.207Z,101678.25
2023-01-23T08:55:01.990Z,101681.22
2023-01-23T09:00:04.437Z,101688.31
2023-01-23T09:05:06.498Z,101684.28
2023-01-23T09:10:08.956Z,101682.81
2023-01-23T09:15:11.250Z,101683.66
2023-01-23T09:20:12.912Z,101694.50
2023-01-23T09:25:14.560Z,101699.38
2023-01-23T09:30:16.732Z,101709.19
2023-01-23T09:35:18.318Z,101712.72
2023-01-23T09:40:23.173Z,101701.81
2023-01-23T09:45:27.560Z,101699.59
2023-01-23T09:50:33.425Z,101707.75
2023-01-23T09:55:52.141Z,101692.97
2023-01-23T10:00:54.062Z,101689.34
2023-01-23T10:06:12.781Z,101686.13
2023-01-23T10:11:51.661Z,101682.81
2023-01-23T10:17:12.210Z,101676.25
2023-01-23T10:22:33.582Z,101686.13
2023-01-23T10:27:43.303Z,101687.75
2023-01-23T10:33:02.711Z,101681.38
2023-01-23T10:38:23.115Z,101689.19
2023-01-23T10:43:26.563Z,101681.72
2023-01-23T10:48:32.133Z,101682.25
2023-01-23T10:53:33.780Z,101677.75
2023-01-23T10:58:41.074Z,101682.81
2023-01-23T11:03:45.538Z,101671.28
2023-01-23T11:09:01.078Z,101679.38
2023-01-23T11:14:05.435Z,101673.28
2023-01-23T11:19:10.216Z,101664.84
2023-01-23T11:24:41.059Z,101672.13
2023-01-23T11:30:17.182Z,101669.16
2023-01-23T11:35:25.427Z,101666.47
2023-01-23T11:40:27.083Z,101664.91
2023-01-23T11:45:55.298Z,101671.81
2023-01-23T11:51:25.359Z,101671.09
2023-01-23T11:56:43.926Z,101662.81
2023-01-23T12:02:22.327Z,101657.91
2023-01-23T12:07:25.071Z,101654.84
2023-01-23T12:12:45.387Z,101654.97
2023-01-23T12:17:52.143Z,101644.59
2023-01-23T12:23:16.765Z,101645.47
2023-01-23T12:28:24.001Z,101657.28
2023-01-23T12:33:45.401Z,101649.69
2023-01-23T12:39:07.016Z,101645.78
2023-01-23T12:44:15.570Z,101656.25
2023-01-23T12:49:29.661Z,101648.03
2023-01-23T12:54:55.875Z,101650.72
2023-01-23T13:00:07.789Z,101656.31
2023-01-23T13:05:21.487Z,101654.94
2023-01-23T13:10:52.414Z,101665.81
2023-01-23T13:16:10.779Z,101654.59
2023-01-23T13:21:31.032Z,101660.41
2023-01-23T13:26:32.813Z,101664.13
2023-01-23T13:31:50.191Z,101661.56
2023-01-23T13:36:54.809Z,101669.59
2023-01-23T13:42:14.943Z,101666.69
2023-01-23T14:20:54.497Z,101667.66
2023-01-23T14:25:57.190Z,101666.44
2023-01-23T14:31:02.626Z,101676.06
2023-01-23T14:36:04.651Z,101667.88
2023-01-23T14:41:07.554Z,101678.41
2023-01-23T14:46:22.335Z,101672.78
2023-01-23T14:51:26.960Z,101669.97
2023-01-23T14:56:39.592Z,101667.47
2023-01-23T15:01:41.362Z,101666.78
2023-01-23T15:06:43.095Z,101677.97
2023-01-23T15:11:45.522Z,101665.34
2023-01-23T15:16:47.261Z,101668.56
2023-01-23T15:21:48.973Z,101665.06
2023-01-23T15:27:06.319Z,101676.41
2023-01-23T15:32:19.991Z,101680.97
2023-01-23T15:37:27.926Z,101674.78
2023-01-23T15:42:32.906Z,101680.22
2023-01-23T15:47:34.985Z,101692.97
2023-01-23T15:52:48.549Z,101699.59
2023-01-23T15:57:52.192Z,101693.00
2023-01-23T16:02:57.124Z,101705.19
2023-01-23T16:08:02.566Z,101697.22
2023-01-23T16:13:05.049Z,101695.75
2023-01-23T16:18:07.215Z,101703.81
2023-01-23T16:23:18.476Z,101714.09
2023-01-23T16:28:22.718Z,101713.66
2023-01-23T16:33:24.516Z,101722.88
2023-01-23T16:38:28.982Z,101720.72
2023-01-23T16:43:30.612Z,101728.38
2023-01-23T16:48:32.295Z,101725.78
2023-01-23T16:53:44.538Z,101726.47
2023-01-23T16:58:46.208Z,101727.78
2023-01-23T17:03:55.732Z,101731.94
2023-01-23T17:08:57.410Z,101741.63
2023-01-23T17:14:02.791Z,101747.44
2023-01-23T17:19:10.607Z,101754.41
2023-01-23T17:24:17.371Z,101755.47
2023-01-23T17:29:20.035Z,101759.91
2023-01-23T17:34:29.283Z,101764.28
2023-01-23T17:39:30.977Z,101764.13
2023-01-23T17:44:32.588Z,101763.22
2023-01-23T17:49:34.436Z,101765.22
2023-01-23T17:54:37.524Z,101754.31
2023-01-23T17:59:39.194Z,101775.06
2023-01-23T18:04:40.893Z,101766.78
2023-01-23T18:09:42.631Z,101765.06
2023-01-23T18:14:56.383Z,101762.81
2023-01-23T18:19:58.209Z,101767.44
2023-01-23T18:25:00.095Z,101764.50
2023-01-23T18:30:31.232Z,101770.56
2023-01-23T18:36:15.173Z,101771.03
2023-01-23T18:41:22.876Z,101760.34
2023-01-23T18:46:25.285Z,101765.59
2023-01-23T18:51:26.958Z,101765.75
2023-01-23T18:56:47.391Z,101770.19
2023-01-23T19:02:11.083Z,101768.63
2023-01-23T19:07:21.125Z,101773.16
2023-01-23T19:12:49.040Z,101775.38
2023-01-23T19:18:16.103Z,101773.16
2023-01-23T19:23:26.510Z,101773.69
2023-01-23T19:28:28.302Z,101773.59
2023-01-23T19:33:29.953Z,101779.72
2023-01-23T19:38:31.538Z,101777.38
2023-01-23T19:43:33.151Z,101784.41
2023-01-23T19:48:34.822Z,101785.81
2023-01-23T19:53:36.641Z,101781.69
2023-01-23T19:58:38.469Z,101786.69
2023-01-23T20:03:41.189Z,101790.44
2023-01-23T20:08:43.070Z,101789.66
2023-01-23T20:13:44.921Z,101793.16
2023-01-23T20:18:48.228Z,101792.25
2023-01-23T20:23:50.563Z,101793.22
2023-01-23T20:28:53.458Z,101795.06
2023-01-23T20:33:55.081Z,101788.03
2023-01-23T20:38:56.955Z,101794.22
2023-01-23T20:43:58.602Z,101793.03
2023-01-23T20:49:01.647Z,101792.09
2023-01-23T20:54:03.276Z,101788.03
2023-01-23T20:59:21.459Z,101788.41
2023-01-23T21:04:25.264Z,101789.94
2023-01-23T21:09:27.411Z,101800.13
2023-01-23T21:14:29.519Z,101791.69
2023-01-23T21:19:32.855Z,101793.16
2023-01-23T21:24:36.134Z,101793.94
2023-01-23T21:29:38.509Z,101795.63
2023-01-23T21:34:40.152Z,101791.69
2023-01-23T21:39:41.778Z,101796.78
2023-01-23T21:44:43.382Z,101789.72
2023-01-23T21:49:44.996Z,101792.25
2023-01-23T21:54:46.641Z,101794.69
2023-01-23T22:00:08.249Z,101800.00
2023-01-23T22:05:15.494Z,101791.81
2023-01-23T22:10:17.172Z,101797.47
2023-01-23T22:15:19.178Z,101800.66
2023-01-23T22:20:21.080Z,101799.06
2023-01-23T22:25:23.144Z,101806.84
2023-01-23T22:30:24.965Z,101805.66
2023-01-23T22:35:26.575Z,101801.44
2023-01-23T22:40:28.185Z,101803.69
2023-01-23T22:45:29.914Z,101802.56
2023-01-23T22:50:31.538Z,101798.03
2023-01-23T22:55:33.157Z,101803.03
2023-01-23T23:00:34.751Z,101806.19
2023-01-23T23:05:36.398Z,101799.50
2023-01-23T23:10:37.998Z,101794.91
2023-01-23T23:15:39.598Z,101786.94
2023-01-23T23:20:41.223Z,101787.06
2023-01-23T23:25:42.895Z,101781.97
2023-01-23T23:30:44.487Z,101784.44
2023-01-23T23:35:46.260Z,101782.69
2023-01-23T23:40:58.569Z,101785.66
2023-01-23T23:46:02.611Z,101784.63
2023-01-23T23:51:07.484Z,101788.13
2023-01-23T23:56:16.914Z,101800.94
